Time;durP1;ratioP1;P1;durP2;ratioP2;P2;SDS_P1;SDS_P2;PMS_P1;PMS_P2;Temp;Humidity;BMP_temperature;BMP_pressure;BME280_temperature;BME280_humidity;BME280_pressure;Samples;Min_cycle;Max_cycle;Signal;HPM_P1;HPM_P2
2022/09/19 00:01:52;;;;;;;1.00;0.70;;;12.30;92.70;;;12.64;60.99;98710.16;4975512;28;114237;-71
2022/09/19 00:04:23;;;;;;;1.27;0.90;;;12.30;92.70;;;12.61;61.19;98710.84;4968379;28;114113;-71
2022/09/19 00:06:53;;;;;;;2.20;0.80;;;12.30;92.70;;;12.57;61.12;98713.44;4969955;28;124120;-71
2022/09/19 00:09:24;;;;;;;0.80;0.70;;;12.30;92.70;;;12.53;61.12;98714.44;4977012;28;124162;-71
2022/09/19 00:11:52;;;;;;;1.20;0.90;;;12.20;92.60;;;12.44;60.86;98714.44;4957606;28;113758;-71
2022/09/19 00:14:23;;;;;;;1.20;0.87;;;12.10;92.70;;;12.37;61.29;98726.00;4970978;28;113753;-71
2022/09/19 00:16:57;;;;;;;0.80;0.70;;;12.10;92.70;;;12.32;61.52;98717.03;4987266;28;123090;-71
2022/09/19 00:19:24;;;;;;;0.97;0.80;;;12.10;92.70;;;12.27;61.66;98712.47;4979772;28;123828;-71
2022/09/19 00:21:56;;;;;;;0.80;0.70;;;12.00;92.70;;;12.24;61.45;98729.75;4959549;28;114357;-71
2022/09/19 00:27:09;;;;;;;1.00;0.80;;;11.90;92.70;;;12.20;61.08;98736.25;4989000;28;124573;-71
2022/09/19 00:29:39;;;;;;;2.70;0.80;;;11.90;92.70;;;12.16;61.62;98742.44;4987383;28;122686;-71
2022/09/19 00:32:07;;;;;;;0.80;0.70;;;11.90;92.70;;;12.16;61.10;98738.88;4984576;28;115366;-71
2022/09/19 00:34:35;;;;;;;0.90;0.80;;;11.90;92.70;;;12.12;61.06;98741.47;4984033;28;116474;-71
2022/09/19 00:37:01;;;;;;;1.87;0.70;;;11.80;92.70;;;12.05;61.28;98743.09;4976182;28;124505;-71
2022/09/19 00:39:28;;;;;;;0.80;0.80;;;11.80;92.70;;;11.97;61.67;98732.81;4976300;28;124408;-71
2022/09/19 00:41:54;;;;;;;1.10;1.00;;;11.70;92.70;;;11.91;61.57;98746.81;4990132;28;114301;-72
2022/09/19 00:44:24;;;;;;;0.90;0.80;;;11.80;92.80;;;11.90;61.58;98747.97;4971820;28;113922;-71
2022/09/19 00:46:59;;;;;;;1.43;0.83;;;11.60;92.80;;;11.90;61.71;98747.97;4982810;28;124248;-71
2022/09/19 00:49:29;;;;;;;0.90;0.70;;;11.60;92.80;;;11.91;61.54;98748.78;4978950;28;123825;-71
2022/09/19 00:52:01;;;;;;;0.80;0.70;;;11.60;92.90;;;11.93;61.59;98758.38;4974297;28;114017;-71
2022/09/19 00:54:34;;;;;;;1.10;0.90;;;11.60;92.90;;;11.94;61.04;98756.44;4983712;28;113881;-71
2022/09/19 00:57:03;;;;;;;1.00;0.77;;;11.60;92.80;;;11.88;61.33;98753.00;4988068;28;123941;-71
2022/09/19 00:59:34;;;;;;;1.27;0.77;;;11.50;92.70;;;11.84;61.44;98749.19;4981870;28;124304;-71
2022/09/19 01:02:05;;;;;;;0.80;0.80;;;11.50;92.70;;;11.79;61.31;98749.34;4985348;28;113913;-71
2022/09/19 01:04:35;;;;;;;0.90;0.77;;;11.50;92.70;;;11.72;61.10;98758.13;4968936;28;113777;-71
2022/09/19 01:07:18;;;;;;;0.90;0.80;;;12.50;93.10;;;11.71;60.99;98763.97;4985457;28;124339;-71
2022/09/19 01:10:25;;;;;;;0.80;0.70;;;11.40;92.60;;;11.67;60.96;98768.53;4979789;28;123391;-71
2022/09/19 01:13:21;;;;;;;0.80;0.70;;;11.40;92.60;;;11.65;60.84;98768.03;4990943;28;113444;-70
2022/09/19 01:16:02;;;;;;;1.00;0.70;;;11.60;92.70;;;11.65;61.33;98768.03;4981782;28;113581;-71
2022/09/19 01:18:38;;;;;;;0.80;0.70;;;11.30;92.50;;;11.66;61.01;98773.25;4981035;28;124232;-70
2022/09/19 01:21:39;;;;;;;0.90;0.80;;;11.30;92.50;;;11.66;61.02;98777.97;4981494;28;123744;-71
2022/09/19 01:24:22;;;;;;;1.27;0.77;;;11.30;92.50;;;11.65;60.86;98776.34;4986212;28;115207;-71
2022/09/19 01:27:33;;;;;;;0.80;0.70;;;11.30;92.50;;;11.63;60.57;98773.06;4986636;28;114936;-71
2022/09/19 01:30:13;;;;;;;1.00;0.80;;;11.30;92.40;;;11.61;61.22;98769.81;4985271;28;124513;-71
2022/09/19 01:32:51;;;;;;;0.90;0.80;;;11.30;92.40;;;11.61;60.80;98769.81;4982356;28;123822;-71
2022/09/19 01:35:29;;;;;;;0.90;0.70;;;11.30;92.40;;;11.63;60.85;98762.00;4981480;28;113621;-71
2022/09/19 01:38:07;;;;;;;1.53;0.80;;;11.30;92.40;;;11.66;61.01;98770.50;4960020;28;113402;-71
2022/09/19 01:40:34;;;;;;;1.00;0.90;;;11.30;92.40;;;11.67;60.81;98765.78;4963408;28;123570;-71
2022/09/19 01:43:02;;;;;;;1.50;0.83;;;11.30;92.40;;;11.70;60.51;98779.78;4972666;28;124409;-71
2022/09/19 01:45:36;;;;;;;1.10;0.80;;;11.30;92.40;;;11.73;60.26;98781.91;4984985;28;113676;-71
2022/09/19 01:48:23;;;;;;;0.80;0.77;;;11.30;92.40;;;11.74;60.63;98782.75;4987018;28;113948;-71
2022/09/19 01:51:28;;;;;;;1.10;0.80;;;11.30;92.40;;;11.72;60.14;98790.53;4983856;28;124166;-71
2022/09/19 01:54:20;;;;;;;1.10;0.80;;;11.40;92.40;;;11.69;60.40;98791.19;4963987;28;124187;-71
2022/09/19 01:57:01;;;;;;;1.30;0.90;;;11.30;92.40;;;11.66;60.63;98789.03;4961919;28;113988;-71
2022/09/19 01:59:47;;;;;;;0.87;0.80;;;11.30;92.40;;;11.64;61.13;98791.31;4952393;28;114351;-71
2022/09/19 02:02:39;;;;;;;1.20;0.90;;;11.30;92.50;;;11.62;60.84;98788.06;4968858;28;124063;-72
2022/09/19 02:05:13;;;;;;;1.87;0.87;;;11.30;92.60;;;11.59;60.82;98794.22;4966345;28;123784;-72
2022/09/19 02:08:08;;;;;;;1.13;0.97;;;11.20;92.60;;;11.59;61.26;98799.75;4964988;28;114225;-72
2022/09/19 02:10:44;;;;;;;1.00;0.77;;;11.20;92.60;;;11.57;61.47;98796.50;4952988;28;113934;-71
2022/09/19 02:13:11;;;;;;;4.20;0.80;;;11.20;92.60;;;11.56;61.05;98800.41;4930224;28;124966;-72
2022/09/19 02:15:46;;;;;;;1.00;0.90;;;11.20;92.60;;;11.56;61.10;98795.69;4949328;28;123707;-72
2022/09/19 02:18:26;;;;;;;0.90;0.80;;;11.20;92.70;;;11.57;61.38;98802.03;4965335;28;115258;-72
2022/09/19 02:21:05;;;;;;;1.00;0.80;;;11.20;92.70;;;11.56;61.02;98792.91;4964928;28;115316;-71
2022/09/19 02:23:38;;;;;;;1.10;0.90;;;11.20;92.70;;;11.56;61.33;98795.69;4963350;28;124055;-71
2022/09/19 02:26:08;;;;;;;1.40;0.97;;;11.20;92.70;;;11.54;61.34;98805.44;4949124;28;122787;-72
2022/09/19 02:28:42;;;;;;;0.90;0.77;;;11.10;92.60;;;11.50;61.06;98795.00;4949817;28;114345;-71
2022/09/19 02:31:12;;;;;;;1.77;0.83;;;11.10;92.60;;;11.49;61.26;98792.53;4966257;28;113976;-71
2022/09/19 02:33:43;;;;;;;1.23;0.80;;;11.10;92.60;;;11.48;61.33;98800.03;4987195;28;123038;-71
2022/09/19 02:36:44;;;;;;;0.80;0.80;;;11.30;92.70;;;11.52;61.00;98804.94;4982473;28;125458;-72
2022/09/19 02:39:20;;;;;;;1.20;0.90;;;11.10;92.60;;;11.49;60.89;98812.72;4980151;28;114196;-71
2022/09/19 02:42:09;;;;;;;1.77;1.10;;;11.10;92.60;;;11.47;60.87;98815.03;4987729;28;114359;-70
2022/09/19 02:45:38;;;;;;;2.30;1.00;;;11.10;92.60;;;11.43;61.02;98813.19;4982494;28;123044;-70
2022/09/19 02:48:43;;;;;;;3.27;1.20;;;11.10;92.50;;;11.41;60.63;98807.97;4949844;28;123166;-71
2022/09/19 02:51:22;;;;;;;1.50;0.90;;;11.10;92.60;;;11.42;60.84;98806.03;4983934;28;114154;-72
2022/09/19 02:53:59;;;;;;;1.20;0.93;;;11.10;92.60;;;11.41;60.93;98802.44;4979245;28;113183;-72
2022/09/19 02:56:30;;;;;;;1.30;1.20;;;11.10;92.60;;;11.39;61.00;98807.50;4983677;28;124630;-71
2022/09/19 02:59:06;;;;;;;2.27;1.00;;;11.00;92.60;;;11.37;61.32;98806.97;4980651;28;124067;-71
2022/09/19 03:01:34;;;;;;;1.93;1.10;;;11.00;92.60;;;11.35;60.98;98802.91;4982580;28;114133;-71
2022/09/19 03:04:12;;;;;;;1.03;0.80;;;11.00;92.60;;;11.32;61.20;98800.78;4986671;28;113958;-72
2022/09/19 03:06:51;;;;;;;1.00;0.90;;;10.90;92.50;;;11.27;60.97;98815.53;4990960;28;124321;-71
2022/09/19 03:09:23;;;;;;;0.90;0.80;;;11.10;92.60;;;11.23;61.21;98812.59;4970391;28;121943;-70
2022/09/19 03:12:18;;;;;;;1.63;1.10;;;10.90;92.60;;;11.21;61.03;98819.59;4973746;28;115376;-70
2022/09/19 03:14:57;;;;;;;3.53;1.07;;;10.90;92.50;;;11.17;61.41;98810.28;4971939;28;114893;-70
2022/09/19 03:17:31;;;;;;;3.33;1.00;;;10.80;92.50;;;11.13;61.05;98820.34;4982875;28;124188;-70
2022/09/19 03:19:58;;;;;;;1.40;1.00;;;10.80;92.50;;;11.12;60.99;98819.50;4985901;28;123849;-70
2022/09/19 03:22:25;;;;;;;4.33;1.17;;;11.10;92.60;;;11.12;61.35;98824.22;4973392;28;114292;-69
2022/09/19 03:24:52;;;;;;;4.03;1.53;;;11.30;92.70;;;11.09;61.31;98825.69;4977911;28;113872;-71
2022/09/19 03:27:18;;;;;;;2.73;1.20;;;10.80;92.50;;;11.09;60.96;98833.16;4976812;28;125128;-70
2022/09/19 03:29:45;;;;;;;3.53;1.30;;;10.80;92.50;;;11.11;61.06;98828.13;4984354;28;123415;-70
2022/09/19 03:32:11;;;;;;;1.87;1.23;;;10.80;92.60;;;11.12;60.92;98827.00;4977822;28;113531;-71
2022/09/19 03:34:38;;;;;;;1.37;0.90;;;10.80;92.50;;;11.15;61.10;98824.44;4982885;28;114118;-70
2022/09/19 03:37:04;;;;;;;4.53;1.17;;;10.80;92.50;;;11.17;61.01;98837.94;4969029;28;123210;-70
2022/09/19 03:39:31;;;;;;;2.07;1.20;;;11.70;92.90;;;11.20;61.37;98832.59;4984628;28;123745;-71
2022/09/19 03:41:59;;;;;;;3.70;1.00;;;11.10;92.70;;;11.23;60.79;98831.13;4979842;28;114070;-69
2022/09/19 03:44:25;;;;;;;1.90;1.30;;;10.80;92.50;;;11.23;61.11;98825.59;4989009;28;113344;-70
2022/09/19 03:46:52;;;;;;;1.27;1.10;;;11.00;92.60;;;11.22;61.08;98829.50;4997922;28;123915;-70
2022/09/19 03:49:19;;;;;;;3.40;1.30;;;10.80;92.50;;;11.21;60.82;98838.94;4987692;28;123969;-70
2022/09/19 03:51:46;;;;;;;2.47;1.27;;;10.80;92.50;;;11.18;60.70;98832.09;4987570;28;114266;-70
2022/09/19 03:54:13;;;;;;;6.37;1.73;;;11.00;92.60;;;11.15;61.01;98823.59;4987176;28;114430;-71
2022/09/19 03:56:39;;;;;;;6.87;1.40;;;10.80;92.80;;;11.13;61.46;98825.88;4986555;28;124200;-71
2022/09/19 03:59:07;;;;;;;3.37;1.20;;;11.90;93.10;;;11.12;61.02;98836.09;4987355;28;123877;-71
2022/09/19 04:01:33;;;;;;;2.40;1.20;;;10.70;92.60;;;11.14;61.51;98830.28;4986852;28;116700;-71
2022/09/19 04:04:00;;;;;;;6.80;1.27;;;10.80;92.70;;;11.14;61.38;98830.28;4989535;28;114872;-73
2022/09/19 04:06:27;;;;;;;2.50;1.07;;;10.80;92.70;;;11.14;61.64;98830.28;4986621;28;124215;-71
2022/09/19 04:08:54;;;;;;;4.33;1.43;;;10.70;92.70;;;11.13;61.49;98835.00;4986003;28;123602;-71
2022/09/19 04:11:20;;;;;;;5.03;1.27;;;10.80;92.80;;;11.15;61.22;98838.25;4984588;28;114305;-71
2022/09/19 04:13:50;;;;;;;4.10;1.17;;;10.80;92.80;;;11.15;61.78;98852.09;4990800;28;113834;-71
2022/09/19 04:16:17;;;;;;;2.93;1.33;;;10.80;92.80;;;11.14;61.84;98853.19;4969233;28;123930;-71
2022/09/19 04:18:47;;;;;;;6.20;1.60;;;11.00;92.90;;;11.13;61.95;98854.34;4973471;28;123917;-71
2022/09/19 04:21:18;;;;;;;1.93;1.27;;;11.20;93.10;;;11.14;61.72;98849.63;4987308;28;114886;-71
2022/09/19 04:23:45;;;;;;;3.60;1.33;;;10.80;92.90;;;11.15;61.86;98859.53;4987245;28;114226;-70
2022/09/19 04:26:13;;;;;;;4.63;1.30;;;11.00;93.00;;;11.18;61.71;98851.44;4972808;28;123908;-71
2022/09/19 04:28:40;;;;;;;2.30;1.10;;;10.80;92.90;;;11.22;62.11;98857.16;4977989;28;123665;-71
2022/09/19 04:31:08;;;;;;;3.50;1.30;;;10.80;93.00;;;11.22;62.08;98851.63;4990854;28;113244;-71
2022/09/19 04:33:36;;;;;;;6.23;1.50;;;10.80;93.00;;;11.23;61.98;98859.63;4987020;28;113624;-73
2022/09/19 04:36:06;;;;;;;2.90;1.23;;;11.00;93.10;;;11.27;61.66;98865.34;4989422;28;123098;-71
2022/09/19 04:38:34;;;;;;;2.60;1.37;;;10.90;93.00;;;11.28;61.62;98858.66;4992484;28;123563;-71
2022/09/19 04:41:01;;;;;;;3.07;1.30;;;11.00;93.10;;;11.30;61.95;98869.41;4986540;28;114358;-71
2022/09/19 04:43:29;;;;;;;5.13;1.50;;;10.90;93.20;;;11.31;62.04;98858.06;4989265;28;114045;-71
2022/09/19 04:45:56;;;;;;;3.27;1.40;;;13.20;94.30;;;11.36;62.13;98868.97;4974166;28;123580;-71
2022/09/19 04:48:23;;;;;;;1.70;1.13;;;11.00;93.30;;;11.38;62.27;98863.13;4987582;28;123747;-71
2022/09/19 04:50:52;;;;;;;4.00;1.20;;;11.00;93.30;;;11.40;61.68;98858.09;4989355;28;115639;-70
2022/09/19 04:53:23;;;;;;;4.03;1.50;;;11.10;93.20;;;11.39;62.06;98862.81;4981154;28;115432;-71
2022/09/19 04:55:52;;;;;;;3.23;1.20;;;11.00;93.20;;;11.39;62.11;98864.75;4980388;28;124046;-71
2022/09/19 04:58:19;;;;;;;8.10;1.77;;;11.00;93.20;;;11.38;61.93;98857.59;4975306;28;123969;-71
2022/09/19 05:00:51;;;;;;;3.40;1.50;;;13.40;94.50;;;11.38;62.07;98855.63;4984580;28;114320;-71
2022/09/19 05:03:18;;;;;;;1.43;1.00;;;11.00;93.10;;;11.38;62.00;98866.69;4975409;28;114203;-70
2022/09/19 05:05:50;;;;;;;3.23;1.60;;;11.00;93.20;;;11.39;62.14;98868.34;4971029;28;124123;-71
2022/09/19 05:08:25;;;;;;;5.20;1.40;;;11.00;93.20;;;11.38;61.67;98869.47;4973631;28;123625;-71
2022/09/19 05:10:57;;;;;;;6.90;1.30;;;11.00;93.20;;;11.36;62.06;98874.50;4982582;28;114305;-71
2022/09/19 05:13:29;;;;;;;2.90;1.10;;;11.00;93.20;;;11.37;62.49;98887.22;4984574;28;113973;-71
2022/09/19 05:15:59;;;;;;;3.37;1.37;;;11.10;93.30;;;11.36;62.04;98885.56;4975191;28;124493;-71
2022/09/19 05:18:28;;;;;;;2.80;1.33;;;11.00;93.30;;;11.37;62.16;98895.50;4980445;28;124625;-71
2022/09/19 05:20:55;;;;;;;3.67;1.40;;;12.60;94.00;;;11.37;62.29;98898.28;4988719;28;114540;-71
2022/09/19 05:23:24;;;;;;;8.77;1.67;;;11.00;93.30;;;11.38;62.07;98891.59;4987270;28;114080;-70
2022/09/19 05:25:54;;;;;;;8.90;1.67;;;11.00;93.30;;;11.43;62.38;98893.44;4973718;28;123916;-70
2022/09/19 05:28:23;;;;;;;3.87;1.50;;;11.00;93.40;;;11.46;62.34;98893.59;4978479;28;123865;-70
2022/09/19 05:30:54;;;;;;;1.67;1.17;;;11.10;93.40;;;11.50;62.07;98896.56;4968197;28;114736;-71
2022/09/19 05:33:25;;;;;;;10.07;1.97;;;11.10;93.30;;;11.53;61.85;98904.22;4985772;28;114000;-71
2022/09/19 05:35:53;;;;;;;4.57;1.40;;;11.90;93.60;;;11.56;61.92;98908.31;4990451;28;123307;-71
2022/09/19 05:38:20;;;;;;;4.30;1.53;;;11.30;93.40;;;11.59;61.93;98904.91;4976725;28;123794;-71
2022/09/19 05:40:46;;;;;;;4.30;1.37;;;11.20;93.30;;;11.60;61.84;98912.88;4987644;28;115359;-71
2022/09/19 05:43:13;;;;;;;5.20;1.70;;;11.20;93.30;;;11.63;61.86;98917.81;4981870;28;115027;-71
2022/09/19 05:45:40;;;;;;;3.00;1.30;;;11.20;93.30;;;11.66;61.93;98916.34;4989145;28;124929;-70
2022/09/19 05:48:08;;;;;;;11.23;1.87;;;11.30;93.30;;;11.69;61.54;98916.53;4996582;28;123306;-70
2022/09/19 05:50:34;;;;;;;2.23;1.40;;;11.30;93.30;;;11.70;61.65;98923.69;4974301;28;113714;-71
2022/09/19 05:55:46;;;;;;;7.03;1.67;;;11.30;93.30;;;11.78;62.00;98930.41;4989164;28;124901;-70
2022/09/19 05:58:16;;;;;;;6.67;1.70;;;11.40;93.30;;;11.80;61.50;98927.34;4979503;28;124241;-70
2022/09/19 06:00:46;;;;;;;5.30;1.50;;;11.40;93.30;;;11.84;61.41;98929.13;4984736;28;115014;-71
2022/09/19 06:03:16;;;;;;;4.67;1.70;;;11.80;93.40;;;11.89;61.31;98925.47;4988540;28;114139;-71
2022/09/19 06:05:45;;;;;;;6.50;1.80;;;11.40;93.20;;;11.92;61.23;98941.44;4971533;28;123256;-70
2022/09/19 06:08:13;;;;;;;4.47;1.50;;;11.50;93.20;;;11.94;61.14;98939.97;4971208;28;123886;-71
2022/09/19 06:10:42;;;;;;;3.57;1.60;;;11.60;93.20;;;11.99;61.56;98946.53;4984890;28;114042;-70
2022/09/19 06:13:22;;;;;;;3.53;1.60;;;11.50;93.20;;;12.02;61.34;98954.19;4976866;28;114462;-70
2022/09/19 06:15:49;;;;;;;7.97;1.77;;;11.60;93.20;;;12.02;61.16;98945.88;4973283;28;123960;-70
2022/09/19 06:18:16;;;;;;;8.87;1.33;;;11.60;93.20;;;12.02;61.21;98963.31;4967994;28;123554;-70
2022/09/19 06:20:44;;;;;;;5.13;1.43;;;11.60;93.10;;;12.00;61.08;98956.47;4966908;28;114560;-71
2022/09/19 06:23:11;;;;;;;12.80;1.90;;;11.60;93.10;;;12.00;61.06;98954.50;4968134;28;114273;-71
2022/09/19 06:25:39;;;;;;;6.00;1.47;;;11.60;93.10;;;11.99;61.17;98957.59;4969240;28;124946;-71
2022/09/19 06:28:10;;;;;;;7.07;2.17;;;11.60;93.10;;;12.00;61.42;98953.69;4970338;28;123022;-70
2022/09/19 06:30:38;;;;;;;10.70;2.07;;;11.60;93.10;;;12.02;61.48;98959.72;4966499;28;115024;-71
2022/09/19 06:33:07;;;;;;;6.60;1.50;;;11.60;93.10;;;12.06;61.21;98955.19;4966589;28;114875;-71
2022/09/19 06:35:34;;;;;;;6.23;1.37;;;11.70;93.20;;;12.07;61.42;98956.84;4967837;28;124487;-71
2022/09/19 06:38:07;;;;;;;5.30;1.97;;;11.70;93.20;;;12.09;61.58;98960.06;4950802;28;123887;-71
2022/09/19 06:40:38;;;;;;;5.30;1.50;;;11.70;93.10;;;12.12;61.56;98963.03;4968513;28;114505;-71
2022/09/19 06:43:06;;;;;;;4.10;1.80;;;12.50;93.50;;;12.15;61.10;98956.88;4969274;28;114046;-70
2022/09/19 06:45:37;;;;;;;4.90;1.63;;;12.60;93.60;;;12.17;61.42;98959.31;4989505;28;123837;-71
2022/09/19 06:48:05;;;;;;;7.67;1.50;;;11.80;93.50;;;12.19;61.26;98970.06;4968065;28;124538;-71
2022/09/19 06:50:32;;;;;;;5.17;1.60;;;12.20;93.40;;;12.21;61.33;98970.56;4968175;28;114220;-70
2022/09/19 06:52:59;;;;;;;8.13;2.07;;;12.00;93.20;;;12.25;61.35;98969.63;4974241;28;113604;-70
2022/09/19 06:55:27;;;;;;;2.83;1.50;;;11.80;93.20;;;12.32;61.35;98983.00;4968649;28;124358;-70
2022/09/19 06:57:59;;;;;;;4.13;1.40;;;12.30;93.40;;;12.39;61.09;98986.13;4967553;28;122806;-70
2022/09/19 07:00:29;;;;;;;3.40;1.60;;;11.90;93.20;;;12.44;61.12;98990.69;4966396;28;114264;-71
2022/09/19 07:03:03;;;;;;;7.73;2.20;;;12.00;93.20;;;12.48;60.68;98991.72;4974048;28;113116;-70
2022/09/19 07:05:35;;;;;;;4.43;1.80;;;12.00;93.10;;;12.47;60.64;98995.63;4969933;28;124751;-70
2022/09/19 07:08:03;;;;;;;7.00;1.80;;;12.00;93.00;;;12.46;60.81;98992.03;4967266;28;123819;-70
2022/09/19 07:10:30;;;;;;;8.33;2.10;;;12.00;93.00;;;12.47;60.89;98995.63;4973570;28;114175;-70
2022/09/19 07:13:01;;;;;;;6.83;1.67;;;12.00;93.00;;;12.49;60.58;98994.19;4978036;28;114466;-70
2022/09/19 07:15:29;;;;;;;5.57;1.70;;;12.10;93.00;;;12.52;60.90;99001.00;4987713;28;124524;-70
2022/09/19 07:17:56;;;;;;;6.30;1.53;;;12.10;93.00;;;12.58;60.59;99000.56;4987365;28;123628;-72
2022/09/19 07:20:24;;;;;;;5.33;1.60;;;12.10;93.00;;;12.68;60.84;99012.47;4976733;28;115184;-72
2022/09/19 07:23:21;;;;;;;5.57;2.23;;;12.20;93.00;;;12.74;60.11;99011.22;4985108;28;114949;-71
2022/09/19 07:25:48;;;;;;;3.23;1.27;;;12.30;93.00;;;12.74;60.41;99012.03;4988237;28;124055;-71
2022/09/19 07:28:20;;;;;;;5.07;1.73;;;12.30;92.90;;;12.79;60.11;99011.88;4989387;28;123965;-71
2022/09/19 07:30:48;;;;;;;6.60;1.93;;;12.30;92.80;;;12.86;60.21;99016.13;4986082;28;114778;-71
2022/09/19 07:33:19;;;;;;;3.30;1.90;;;12.40;92.90;;;12.88;60.02;99016.63;4990240;28;113871;-71
2022/09/19 07:35:46;;;;;;;4.80;1.90;;;12.40;92.80;;;12.88;59.83;99022.97;4985912;28;124262;-71
2022/09/19 07:38:16;;;;;;;5.93;1.93;;;12.40;92.70;;;12.87;59.94;99015.81;4985127;28;123870;-71
2022/09/19 07:40:43;;;;;;;3.73;1.40;;;13.20;93.00;;;12.89;60.04;99037.66;4988927;28;114219;-71
2022/09/19 07:43:16;;;;;;;9.93;1.90;;;12.40;92.60;;;12.90;59.77;99028.22;4985102;28;113976;-72
2022/09/19 07:45:51;;;;;;;4.00;1.80;;;12.50;92.60;;;12.92;60.04;99034.25;4996867;28;124431;-71
2022/09/19 07:48:20;;;;;;;7.97;1.77;;;12.70;92.70;;;12.94;59.92;99031.97;4974412;28;123662;-71
2022/09/19 07:50:50;;;;;;;11.57;2.17;;;12.60;92.70;;;12.99;59.83;99034.59;4989518;28;114303;-71
2022/09/19 07:53:23;;;;;;;4.13;1.90;;;12.60;92.70;;;13.04;59.58;99032.47;4990526;28;114228;-71
2022/09/19 07:55:53;;;;;;;7.97;1.97;;;12.60;92.70;;;13.08;59.90;99040.16;4988826;28;124111;-72
2022/09/19 07:58:24;;;;;;;7.17;1.97;;;12.60;92.60;;;13.08;59.72;99040.16;4988679;28;122831;-71
2022/09/19 08:00:51;;;;;;;6.53;1.97;;;12.70;92.60;;;13.09;59.97;99050.13;4993669;28;114495;-70
2022/09/19 08:03:20;;;;;;;8.70;2.37;;;12.60;92.50;;;13.11;59.55;99051.44;4991278;28;114128;-70
2022/09/19 08:05:52;;;;;;;4.97;1.73;;;12.60;92.50;;;13.14;59.53;99052.75;4990100;28;123949;-71
2022/09/19 08:08:22;;;;;;;4.63;2.00;;;12.70;92.50;;;13.14;59.54;99055.53;4988805;28;124056;-72
2022/09/19 08:10:49;;;;;;;6.83;1.87;;;12.70;92.50;;;13.18;59.61;99064.81;4992054;28;113393;-71
2022/09/19 08:13:18;;;;;;;4.63;1.87;;;12.70;92.50;;;13.24;59.45;99072.69;4991181;28;113758;-72
2022/09/19 08:15:48;;;;;;;8.10;1.60;;;12.80;92.60;;;13.31;59.18;99065.88;4989453;28;124346;-71
2022/09/19 08:18:18;;;;;;;5.17;1.53;;;12.80;92.50;;;13.33;59.08;99069.94;4954747;28;123181;-71
2022/09/19 08:20:46;;;;;;;5.70;2.00;;;12.80;92.40;;;13.36;59.46;99076.81;4988634;28;114644;-71
2022/09/19 08:23:16;;;;;;;3.60;2.03;;;12.90;92.40;;;13.40;59.00;99081.38;4989735;28;114457;-72
2022/09/19 08:25:46;;;;;;;5.03;1.60;;;12.90;92.30;;;13.45;59.06;99077.63;4988752;28;124024;-71
2022/09/19 08:28:14;;;;;;;6.43;2.43;;;13.00;92.30;;;13.48;58.62;99079.75;4991032;28;123789;-71
2022/09/19 08:30:45;;;;;;;3.40;2.03;;;13.30;92.30;;;13.50;58.46;99071.09;4991079;28;114678;-71
2022/09/19 08:33:12;;;;;;;10.10;2.13;;;13.00;92.10;;;13.54;58.66;99072.91;4977466;28;114048;-72
2022/09/19 08:35:39;;;;;;;5.73;2.50;;;13.00;92.10;;;13.55;58.53;99074.53;4985263;28;125187;-71
2022/09/19 08:38:10;;;;;;;9.13;1.60;;;13.00;92.00;;;13.54;58.32;99078.47;4976342;28;123853;-71
2022/09/19 08:40:40;;;;;;;4.47;2.27;;;13.00;92.00;;;13.54;58.52;99083.19;4991212;28;113972;-71
2022/09/19 08:43:37;;;;;;;7.77;2.23;;;13.00;91.90;;;13.56;58.50;99078.94;4990721;28;113809;-71
2022/09/19 08:46:20;;;;;;;12.10;2.00;;;13.10;92.10;;;13.64;58.72;99082.88;4999330;28;123980;-72
2022/09/19 08:48:55;;;;;;;13.87;2.20;;;13.10;92.00;;;13.64;58.45;99083.69;4988310;28;123663;-71
2022/09/19 08:51:43;;;;;;;6.17;1.70;;;13.20;92.00;;;13.66;58.60;99097.25;4988080;28;113921;-72
2022/09/19 08:54:33;;;;;;;11.63;2.27;;;13.20;92.00;;;13.65;57.99;99090.88;4992854;28;113518;-72
2022/09/19 08:57:01;;;;;;;5.40;1.70;;;13.20;91.80;;;13.69;58.30;99094.63;4988360;28;124226;-71
2022/09/19 08:59:39;;;;;;;4.57;2.00;;;13.20;91.80;;;13.74;58.17;99090.88;4985445;28;123648;-71
2022/09/19 09:02:56;;;;;;;5.00;1.90;;;13.30;91.80;;;13.75;58.17;99108.34;4988151;28;115095;-70
2022/09/19 09:05:47;;;;;;;9.57;3.00;;;13.30;91.80;;;13.75;57.78;99116.69;4987849;28;115383;-71
2022/09/19 09:08:25;;;;;;;6.80;2.20;;;13.30;91.70;;;13.76;57.88;99112.78;4962027;28;123979;-71
2022/09/19 09:10:56;;;;;;;8.53;1.73;;;13.30;91.60;;;13.77;57.87;99117.19;4983333;28;123526;-72
2022/09/19 09:13:58;;;;;;;5.43;1.60;;;13.40;91.60;;;13.75;57.89;99114.72;4966777;28;113882;-70
2022/09/19 09:17:01;;;;;;;3.97;1.77;;;13.40;91.60;;;13.76;57.79;99118.34;4979135;28;114158;-72
2022/09/19 09:19:55;;;;;;;7.70;2.10;;;13.30;91.50;;;13.76;57.46;99113.59;4988904;28;124464;-71
2022/09/19 09:22:37;;;;;;;5.57;1.93;;;13.30;91.40;;;13.72;57.42;99118.16;4984353;28;123845;-71
2022/09/19 09:25:20;;;;;;;5.10;1.60;;;13.30;91.30;;;13.75;57.60;99114.72;4991127;28;114158;-71
2022/09/19 09:28:26;;;;;;;8.73;2.00;;;13.30;91.40;;;13.78;57.55;99113.25;4992294;28;113948;-71
2022/09/19 09:31:25;;;;;;;4.13;1.77;;;13.40;91.40;;;13.85;57.61;99116.38;4991168;28;124323;-71
2022/09/19 09:34:30;;;;;;;5.37;1.40;;;13.40;91.40;;;13.91;57.31;99115.88;4989141;28;124411;-70
2022/09/19 09:37:19;;;;;;;2.70;1.30;;;13.50;91.40;;;13.97;57.10;99108.22;4987104;28;114235;-71
2022/09/19 09:40:08;;;;;;;4.60;1.73;;;13.60;91.20;;;14.00;56.97;99110.34;4974959;28;114595;-71
2022/09/19 09:43:05;;;;;;;5.10;1.90;;;13.50;91.10;;;14.03;56.95;99112.44;4991022;28;124717;-70
2022/09/19 09:45:49;;;;;;;7.00;2.13;;;13.60;91.20;;;14.08;56.87;99115.06;4997440;28;123985;-71
2022/09/19 09:48:35;;;;;;;4.40;1.80;;;13.60;91.10;;;14.14;56.82;99127.63;4973058;28;113245;-71
2022/09/19 09:51:48;;;;;;;5.33;1.60;;;13.70;91.20;;;14.18;56.69;99119.44;4990406;28;113906;-71
2022/09/19 09:58:06;;;;;;;4.90;1.90;;;13.70;91.00;;;14.23;56.48;99126.81;4969557;28;124321;-71
2022/09/19 10:03:49;;;;;;;6.43;2.00;;;13.80;91.00;;;14.30;56.41;99121.59;4988357;28;115727;-71
2022/09/19 10:06:25;;;;;;;1.73;1.40;;;13.90;91.00;;;14.36;56.03;99109.94;4986974;28;124545;-71
2022/09/19 10:09:14;;;;;;;2.70;1.30;;;14.00;90.90;;;14.45;55.92;99118.25;4987261;28;123940;-70
2022/09/19 10:11:56;;;;;;;6.43;1.93;;;14.00;90.70;;;14.51;55.58;99111.41;4975940;28;114614;-70
2022/09/19 10:14:28;;;;;;;7.00;1.53;;;14.00;90.60;;;14.48;55.52;99112.06;4982680;28;113999;-71
2022/09/19 10:17:00;;;;;;;9.20;1.80;;;14.00;90.40;;;14.50;55.48;99108.94;4990001;28;124477;-71
2022/09/19 10:19:55;;;;;;;5.10;1.70;;;14.00;90.40;;;14.56;55.38;99102.06;4988565;28;123856;-70
2022/09/19 10:22:22;;;;;;;3.80;1.77;;;14.10;90.40;;;14.65;55.29;99102.06;4989585;28;114732;-71
2022/09/19 10:24:54;;;;;;;4.70;1.40;;;14.80;90.70;;;14.74;55.18;99108.41;4988430;28;114158;-71
2022/09/19 10:27:33;;;;;;;3.27;1.40;;;14.30;90.40;;;14.78;54.72;99106.59;4988817;28;123727;-70
2022/09/19 10:30:16;;;;;;;5.37;1.53;;;14.30;90.10;;;14.82;54.61;99103.97;4981546;28;123695;-70
2022/09/19 10:32:44;;;;;;;3.57;1.73;;;14.30;90.00;;;14.82;54.74;99099.22;4985617;28;114324;-69
2022/09/19 10:35:38;;;;;;;10.83;1.90;;;14.30;90.00;;;14.87;54.72;99101.81;4985900;28;114158;-72
2022/09/19 10:38:18;;;;;;;3.43;1.80;;;14.40;90.10;;;14.89;54.55;99105.09;4983655;28;126088;-71
2022/09/19 10:40:56;;;;;;;4.10;1.60;;;14.40;90.00;;;14.94;54.52;99104.91;4987745;28;123978;-71
2022/09/19 10:43:32;;;;;;;2.90;1.40;;;14.40;90.00;;;14.99;54.56;99104.72;4987475;28;114366;-71
2022/09/19 10:46:06;;;;;;;6.67;1.53;;;14.50;90.00;;;15.07;54.58;99099.44;4989633;28;113990;-71
2022/09/19 10:48:35;;;;;;;2.20;1.20;;;14.60;90.00;;;15.12;54.57;99096.47;4986200;28;124471;-71
2022/09/19 10:51:08;;;;;;;2.90;1.33;;;14.60;90.00;;;15.18;54.43;99089.56;4989284;28;126099;-71
2022/09/19 10:53:41;;;;;;;3.37;1.50;;;14.70;90.00;;;15.22;54.36;99090.50;4986913;28;115220;-71
2022/09/19 10:56:25;;;;;;;3.37;1.40;;;14.70;90.00;;;15.27;54.15;99093.09;4987857;28;115101;-70